createdAt,value
2019-06-01T00:00:53.438Z,16.35
2019-06-01T00:03:20.216Z,16.27
2019-06-01T00:05:47.036Z,16.22
2019-06-01T00:08:13.808Z,16.14
2019-06-01T00:10:41.060Z,16.07
2019-06-01T00:13:08.162Z,15.99
2019-06-01T00:15:35.048Z,15.93
2019-06-01T00:18:01.907Z,15.87
2019-06-01T00:20:28.959Z,15.85
2019-06-01T00:22:55.770Z,15.82
2019-06-01T00:25:22.921Z,15.81
2019-06-01T00:27:49.854Z,15.77
2019-06-01T00:30:26.619Z,15.70
2019-06-01T00:32:45.605Z,15.63
2019-06-01T00:35:12.420Z,15.59
2019-06-01T00:37:39.171Z,15.55
2019-06-01T00:40:06.805Z,15.51
2019-06-01T00:42:33.642Z,15.48
2019-06-01T00:45:00.557Z,15.47
2019-06-01T00:47:27.530Z,15.47
2019-06-01T00:49:54.357Z,15.44
2019-06-01T00:52:21.364Z,15.38
2019-06-01T00:54:49.385Z,15.36
2019-06-01T00:57:16.491Z,15.31
2019-06-01T00:59:43.673Z,15.28
2019-06-01T01:02:10.500Z,15.26
2019-06-01T01:04:37.303Z,15.21
2019-06-01T01:07:04.186Z,15.18
2019-06-01T01:09:30.980Z,15.15
2019-06-01T01:11:57.737Z,15.13
2019-06-01T01:14:25.539Z,15.07
2019-06-01T01:16:54.026Z,15.05
2019-06-01T01:19:21.122Z,15.00
2019-06-01T01:21:49.934Z,14.97
2019-06-01T01:24:17.161Z,14.95
2019-06-01T01:26:43.898Z,14.94
2019-06-01T01:29:11.050Z,14.93
2019-06-01T01:31:37.939Z,14.91
2019-06-01T01:34:04.693Z,14.89
2019-06-01T01:36:32.804Z,14.88
2019-06-01T01:38:59.568Z,14.87
2019-06-01T01:41:26.379Z,14.84
2019-06-01T01:43:54.514Z,14.83
2019-06-01T01:46:21.634Z,14.83
2019-06-01T01:48:48.442Z,14.83
2019-06-01T01:51:15.302Z,14.80
2019-06-01T01:53:42.154Z,14.78
2019-06-01T01:56:09.130Z,14.75
2019-06-01T01:58:35.901Z,14.72
2019-06-01T02:01:20.803Z,14.71
2019-06-01T02:03:31.453Z,14.70
2019-06-01T02:05:59.072Z,14.68
2019-06-01T02:08:26.102Z,14.67
2019-06-01T02:10:53.287Z,14.63
2019-06-01T02:13:20.262Z,14.62
2019-06-01T02:15:48.222Z,14.63
2019-06-01T02:18:15.218Z,14.64
2019-06-01T02:20:42.123Z,14.64
2019-06-01T02:23:09.007Z,14.61
2019-06-01T02:25:35.900Z,14.60
2019-06-01T02:28:03.372Z,14.59
2019-06-01T02:30:30.685Z,14.58
2019-06-01T02:32:58.463Z,14.58
2019-06-01T02:35:26.318Z,14.55
2019-06-01T02:37:54.456Z,14.58
2019-06-01T02:40:21.776Z,14.57
2019-06-01T02:42:49.473Z,14.57
2019-06-01T02:45:16.928Z,14.57
2019-06-01T02:47:55.348Z,14.59
2019-06-01T02:50:22.245Z,14.61
2019-06-01T02:52:49.218Z,14.57
2019-06-01T02:55:17.016Z,14.63
2019-06-01T02:57:43.940Z,14.69
2019-06-01T03:00:11.508Z,14.67
2019-06-01T03:02:38.370Z,14.62
2019-06-01T03:05:05.718Z,14.58
2019-06-01T03:07:32.481Z,14.58
2019-06-01T03:10:00.879Z,14.58
2019-06-01T03:12:29.114Z,14.53
2019-06-01T03:14:56.279Z,14.55
2019-06-01T03:17:24.265Z,14.56
2019-06-01T03:19:51.507Z,14.63
2019-06-01T03:22:18.882Z,14.72
2019-06-01T03:24:47.184Z,14.80
2019-06-01T03:27:15.073Z,14.79
2019-06-01T03:29:46.931Z,14.89
2019-06-01T03:32:33.203Z,14.86
2019-06-01T03:34:42.502Z,14.87
2019-06-01T03:37:09.267Z,14.95
2019-06-01T03:39:36.146Z,15.00
2019-06-01T03:42:03.409Z,14.95
2019-06-01T03:44:30.330Z,14.98
2019-06-01T03:46:57.492Z,15.01
2019-06-01T03:49:24.648Z,15.13
2019-06-01T03:51:51.559Z,15.09
2019-06-01T03:54:18.471Z,15.14
2019-06-01T03:56:45.282Z,15.17
2019-06-01T03:59:12.227Z,15.13
2019-06-01T04:01:38.978Z,15.12
2019-06-01T04:04:07.150Z,15.12
2019-06-01T04:06:34.116Z,15.08
2019-06-01T04:09:01.595Z,15.07
2019-06-01T04:11:28.589Z,15.06
2019-06-01T04:13:55.427Z,15.07
2019-06-01T04:16:22.409Z,15.14
2019-06-01T04:18:49.273Z,15.27
2019-06-01T04:21:16.144Z,15.32
2019-06-01T04:23:42.926Z,15.36
2019-06-01T04:26:10.381Z,15.37
2019-06-01T04:28:37.288Z,15.45
2019-06-01T04:31:04.609Z,15.49
2019-06-01T04:33:31.555Z,15.54
2019-06-01T04:35:58.440Z,15.62
2019-06-01T04:38:25.204Z,15.78
2019-06-01T04:40:51.953Z,15.89
2019-06-01T04:43:19.114Z,16.08
2019-06-01T04:45:46.223Z,16.24
2019-06-01T04:48:13.126Z,16.39
2019-06-01T04:50:40.275Z,16.52
2019-06-01T04:53:07.102Z,16.59
2019-06-01T04:55:44.439Z,16.74
2019-06-01T04:58:11.378Z,16.61
2019-06-01T05:00:38.408Z,16.75
2019-06-01T05:03:08.458Z,16.86
2019-06-01T05:05:34.587Z,16.88
2019-06-01T05:08:01.752Z,16.96
2019-06-01T05:10:28.790Z,17.03
2019-06-01T05:12:55.564Z,17.21
2019-06-01T05:15:22.376Z,17.40
2019-06-01T05:17:49.241Z,17.58
2019-06-01T05:20:16.969Z,17.71
2019-06-01T05:22:43.824Z,17.68
2019-06-01T05:25:12.191Z,17.67
2019-06-01T05:27:39.388Z,17.79
2019-06-01T05:30:07.298Z,17.85
2019-06-01T05:32:34.362Z,17.84
2019-06-01T05:35:01.228Z,18.05
2019-06-01T05:37:28.142Z,18.04
2019-06-01T05:39:54.911Z,18.10
2019-06-01T05:42:22.074Z,18.19
2019-06-01T05:44:48.813Z,18.17
2019-06-01T05:47:16.236Z,18.31
2019-06-01T05:49:43.515Z,18.42
2019-06-01T05:52:10.413Z,18.44
2019-06-01T05:54:37.280Z,18.54
2019-06-01T05:57:04.190Z,18.65
2019-06-01T05:59:30.924Z,18.76
2019-06-01T06:01:57.733Z,18.71
2019-06-01T06:04:24.519Z,18.79
2019-06-01T06:06:51.325Z,18.78
2019-06-01T06:09:19.233Z,18.70
2019-06-01T06:11:48.470Z,18.83
2019-06-01T06:14:15.549Z,18.81
2019-06-01T06:16:42.306Z,18.94
2019-06-01T06:19:09.108Z,19.06
2019-06-01T06:21:36.018Z,19.15
2019-06-01T06:24:02.960Z,19.22
2019-06-01T06:26:29.748Z,19.37
2019-06-01T06:28:56.530Z,19.46
2019-06-01T06:31:23.427Z,19.53
2019-06-01T06:33:56.465Z,19.60
2019-06-01T06:36:19.784Z,19.58
2019-06-01T06:38:47.041Z,19.71
2019-06-01T06:41:14.003Z,19.63
2019-06-01T06:43:40.913Z,19.86
2019-06-01T06:46:07.670Z,20.02
2019-06-01T06:48:34.372Z,20.21
2019-06-01T06:51:01.166Z,20.45
2019-06-01T06:53:34.501Z,20.72
2019-06-01T06:55:56.669Z,20.85
2019-06-01T06:58:24.460Z,21.06
2019-06-01T07:00:51.313Z,21.01
2019-06-01T07:03:19.442Z,21.05
2019-06-01T07:05:46.892Z,20.99
2019-06-01T07:08:13.838Z,21.18
2019-06-01T07:10:40.941Z,21.32
2019-06-01T07:13:07.796Z,21.36
2019-06-01T07:15:34.601Z,21.48
2019-06-01T07:18:01.467Z,21.64
2019-06-01T07:20:28.343Z,21.38
2019-06-01T07:22:55.282Z,21.66
2019-06-01T07:25:22.219Z,21.86
2019-06-01T07:27:49.083Z,22.11
2019-06-01T07:30:16.422Z,22.33
2019-06-01T07:32:43.304Z,22.37
2019-06-01T07:35:10.201Z,22.33
2019-06-01T07:37:36.865Z,22.32
2019-06-01T07:40:04.257Z,22.33
2019-06-01T07:42:31.170Z,22.63
2019-06-01T07:44:58.774Z,22.73
2019-06-01T07:47:27.218Z,22.58
2019-06-01T07:49:54.422Z,22.68
2019-06-01T07:52:22.350Z,22.92
2019-06-01T07:54:49.840Z,22.72
2019-06-01T07:57:17.007Z,22.52
2019-06-01T07:59:44.193Z,22.78
2019-06-01T08:02:11.079Z,23.04
2019-06-01T08:04:52.632Z,23.26
2019-06-01T08:07:06.648Z,23.24
2019-06-01T08:09:33.419Z,23.05
2019-06-01T08:12:00.504Z,22.76
2019-06-01T08:14:28.555Z,22.91
2019-06-01T08:16:55.902Z,23.25
2019-06-01T08:19:23.862Z,23.80
2019-06-01T08:21:50.765Z,24.15
2019-06-01T08:24:17.763Z,24.43
2019-06-01T08:26:44.555Z,24.34
2019-06-01T08:29:11.833Z,24.35
2019-06-01T08:31:39.087Z,24.09
2019-06-01T08:34:05.866Z,24.36
2019-06-01T08:36:33.952Z,24.46
2019-06-01T08:39:00.995Z,25.09
2019-06-01T08:41:27.889Z,25.61
2019-06-01T08:43:54.768Z,25.69
2019-06-01T08:46:21.554Z,25.14
2019-06-01T08:48:48.408Z,25.22
2019-06-01T08:51:15.326Z,25.42
2019-06-01T08:53:42.094Z,25.70
2019-06-01T08:56:08.853Z,25.42
2019-06-01T08:58:35.655Z,25.46
2019-06-01T09:01:02.542Z,25.65
2019-06-01T09:03:29.808Z,25.61
2019-06-01T09:05:56.633Z,25.68
2019-06-01T09:08:24.370Z,26.04
2019-06-01T09:10:52.318Z,26.01
2019-06-01T09:13:19.305Z,25.81
2019-06-01T09:15:46.205Z,25.91
2019-06-01T09:18:13.169Z,26.06
2019-06-01T09:20:39.935Z,26.33
2019-06-01T09:23:06.729Z,26.31
2019-06-01T09:25:33.845Z,26.31
2019-06-01T09:28:01.125Z,26.43
2019-06-01T09:30:28.058Z,26.52
2019-06-01T09:32:54.957Z,26.28
2019-06-01T09:35:21.906Z,26.77
2019-06-01T09:37:48.773Z,26.90
2019-06-01T09:40:16.334Z,27.14
2019-06-01T09:42:43.132Z,27.46
2019-06-01T09:45:10.216Z,28.30
2019-06-01T09:47:37.873Z,28.01
2019-06-01T09:50:06.131Z,27.28
2019-06-01T09:52:33.460Z,27.28
2019-06-01T09:55:00.370Z,27.37
2019-06-01T09:57:27.685Z,27.60
2019-06-01T09:59:54.807Z,28.04
2019-06-01T10:02:21.839Z,28.05
2019-06-01T10:04:48.589Z,28.03
2019-06-01T10:07:15.523Z,28.40
2019-06-01T10:09:42.381Z,28.54
2019-06-01T10:12:09.284Z,28.23
2019-06-01T10:14:36.269Z,28.33
2019-06-01T10:17:03.088Z,28.58
2019-06-01T10:19:34.659Z,28.63
2019-06-01T10:22:01.494Z,29.22
2019-06-01T10:24:28.367Z,29.08
2019-06-01T10:26:55.748Z,28.76
2019-06-01T10:29:22.549Z,28.44
2019-06-01T10:31:49.365Z,28.75
2019-06-01T10:34:16.116Z,28.51
2019-06-01T10:36:42.877Z,28.97
2019-06-01T10:39:09.778Z,29.38
2019-06-01T10:41:37.451Z,30.04
2019-06-01T10:44:04.437Z,30.23
2019-06-01T10:46:31.794Z,30.31
2019-06-01T10:48:58.779Z,29.99
2019-06-01T10:51:25.688Z,30.44
2019-06-01T10:53:52.828Z,30.87
2019-06-01T10:56:19.619Z,31.19
2019-06-01T10:58:59.335Z,31.76
2019-06-01T11:01:15.043Z,31.05
2019-06-01T11:03:42.842Z,30.82
2019-06-01T11:06:09.753Z,30.61
2019-06-01T11:08:37.163Z,30.77
2019-06-01T11:11:04.253Z,31.46
2019-06-01T11:13:32.963Z,31.83
2019-06-01T11:16:00.556Z,31.73
2019-06-01T11:18:27.424Z,32.24
2019-06-01T11:20:54.177Z,32.14
2019-06-01T11:23:21.241Z,32.60
2019-06-01T11:25:48.378Z,31.91
2019-06-01T11:28:15.195Z,31.49
2019-06-01T11:30:42.010Z,32.72
2019-06-01T11:33:08.769Z,33.61
2019-06-01T11:35:37.079Z,33.61
2019-06-01T11:38:04.052Z,33.94
2019-06-01T11:40:31.678Z,34.10
2019-06-01T11:42:58.817Z,35.03
2019-06-01T11:45:25.787Z,35.16
2019-06-01T11:47:52.657Z,35.06
2019-06-01T11:50:19.603Z,35.46
2019-06-01T11:52:46.469Z,34.45
2019-06-01T11:55:13.323Z,34.23
2019-06-01T11:57:41.587Z,33.34
2019-06-01T12:00:10.068Z,33.43
2019-06-01T12:02:37.447Z,33.51
2019-06-01T12:05:05.785Z,33.09
2019-06-01T12:07:32.638Z,32.67
2019-06-01T12:09:59.455Z,31.81
2019-06-01T12:12:36.002Z,31.19
2019-06-01T12:15:03.400Z,30.81
2019-06-01T12:17:30.167Z,30.82
2019-06-01T12:19:57.733Z,30.62
2019-06-01T12:22:24.527Z,30.83
2019-06-01T12:24:51.275Z,31.15
2019-06-01T12:27:18.211Z,31.17
2019-06-01T12:29:46.147Z,31.05
2019-06-01T12:32:12.927Z,30.78
2019-06-01T12:34:39.988Z,30.39
2019-06-01T12:37:06.896Z,29.97
2019-06-01T12:39:33.971Z,29.86
2019-06-01T12:42:00.900Z,30.07
2019-06-01T12:44:27.647Z,30.06
2019-06-01T12:46:54.719Z,29.73
2019-06-01T12:49:21.909Z,30.01
2019-06-01T12:51:49.014Z,29.92
2019-06-01T12:54:16.245Z,29.94
2019-06-01T12:56:43.270Z,29.70
2019-06-01T12:59:10.546Z,29.71
2019-06-01T13:01:37.520Z,29.84
2019-06-01T13:04:04.412Z,29.97
2019-06-01T13:06:31.412Z,30.03
2019-06-01T13:08:58.312Z,30.29
2019-06-01T13:11:28.321Z,30.50
2019-06-01T13:13:55.542Z,30.42
2019-06-01T13:16:22.406Z,30.18
2019-06-01T13:18:49.534Z,30.45
2019-06-01T13:21:16.470Z,30.81
2019-06-01T13:23:43.453Z,31.06
2019-06-01T13:26:10.839Z,30.77
2019-06-01T13:28:38.563Z,30.68
2019-06-01T13:31:05.746Z,30.80
2019-06-01T13:33:32.920Z,30.72
2019-06-01T13:35:59.770Z,31.05
2019-06-01T13:38:26.686Z,30.92
2019-06-01T13:40:54.131Z,31.23
2019-06-01T13:43:21.622Z,31.13
2019-06-01T13:45:49.316Z,30.91
2019-06-01T13:48:16.967Z,30.93
2019-06-01T13:50:44.321Z,30.77
2019-06-01T13:53:12.839Z,30.76
2019-06-01T13:55:39.595Z,31.27
2019-06-01T13:58:06.375Z,31.16
2019-06-01T14:00:42.179Z,31.12
2019-06-01T14:03:08.978Z,31.20
2019-06-01T14:05:35.732Z,31.29
2019-06-01T14:08:02.677Z,31.37
2019-06-01T14:10:29.549Z,31.64
2019-06-01T14:12:56.527Z,32.14
2019-06-01T14:15:33.529Z,32.38
2019-06-01T14:18:00.454Z,31.99
2019-06-01T14:20:27.337Z,31.73
2019-06-01T14:22:54.216Z,31.46
2019-06-01T14:25:21.068Z,31.43
2019-06-01T14:27:50.240Z,31.66
2019-06-01T14:30:17.296Z,31.95
2019-06-01T14:32:46.194Z,32.39
2019-06-01T14:35:19.851Z,32.41
2019-06-01T14:37:46.874Z,32.40
2019-06-01T14:40:28.098Z,31.90
2019-06-01T14:42:55.657Z,30.71
2019-06-01T14:45:22.765Z,30.31
2019-06-01T14:47:50.004Z,30.45
2019-06-01T14:50:16.858Z,31.06
2019-06-01T14:52:49.810Z,31.56
2019-06-01T14:55:16.739Z,32.17
2019-06-01T14:57:44.099Z,32.85
2019-06-01T15:00:11.271Z,33.24
2019-06-01T15:02:38.290Z,33.65
2019-06-01T15:05:05.713Z,34.51
2019-06-01T15:07:32.639Z,32.14
2019-06-01T15:09:59.507Z,34.15
2019-06-01T15:12:26.346Z,37.58
2019-06-01T15:14:53.232Z,39.76
2019-06-01T15:17:20.137Z,39.91
2019-06-01T15:19:47.019Z,38.36
2019-06-01T15:22:15.696Z,36.33
2019-06-01T15:24:42.582Z,37.44
2019-06-01T15:27:09.488Z,39.16
2019-06-01T15:29:36.727Z,41.93
2019-06-01T15:32:03.840Z,43.10
2019-06-01T15:34:31.635Z,43.12
2019-06-01T15:36:59.705Z,41.86
2019-06-01T15:39:42.568Z,41.92
2019-06-01T15:42:11.238Z,40.46
2019-06-01T15:44:38.344Z,39.27
2019-06-01T15:47:05.239Z,40.91
2019-06-01T15:49:32.222Z,41.78
2019-06-01T15:52:03.733Z,42.10
2019-06-01T15:54:30.898Z,40.78
2019-06-01T15:56:58.475Z,39.34
2019-06-01T15:59:25.948Z,38.78
2019-06-01T16:01:53.380Z,37.68
2019-06-01T16:04:20.260Z,36.73
2019-06-01T16:06:48.302Z,35.19
2019-06-01T16:09:16.676Z,34.13
2019-06-01T16:11:45.092Z,32.73
2019-06-01T16:14:12.903Z,32.11
2019-06-01T16:16:40.611Z,31.85
2019-06-01T16:19:08.441Z,31.18
2019-06-01T16:21:35.857Z,30.69
2019-06-01T16:24:04.452Z,30.42
2019-06-01T16:26:34.959Z,30.17
2019-06-01T16:29:03.468Z,29.80
2019-06-01T16:31:31.101Z,29.44
2019-06-01T16:34:02.730Z,29.56
2019-06-01T16:36:31.123Z,29.37
2019-06-01T16:39:03.052Z,29.16
2019-06-01T16:41:26.972Z,29.11
2019-06-01T16:43:55.392Z,29.24
2019-06-01T16:46:22.773Z,29.04
2019-06-01T16:48:50.951Z,28.91
2019-06-01T16:51:17.982Z,29.08
2019-06-01T16:53:44.957Z,28.87
2019-06-01T16:56:12.416Z,28.84
2019-06-01T16:58:39.575Z,28.67
2019-06-01T17:01:07.610Z,28.57
2019-06-01T17:03:34.478Z,28.41
2019-06-01T17:06:02.873Z,28.35
2019-06-01T17:08:30.212Z,28.11
2019-06-01T17:10:58.656Z,28.05
2019-06-01T17:13:26.299Z,27.85
2019-06-01T17:15:53.965Z,27.77
2019-06-01T17:18:23.145Z,27.74
2019-06-01T17:20:51.140Z,27.52
2019-06-01T17:23:26.993Z,27.49
2019-06-01T17:25:47.604Z,27.49
2019-06-01T17:28:15.697Z,27.37
2019-06-01T17:30:44.228Z,27.30
2019-06-01T17:33:11.275Z,27.17
2019-06-01T17:35:38.160Z,27.06
2019-06-01T17:38:07.534Z,27.05
2019-06-01T17:40:37.821Z,27.01
2019-06-01T17:43:16.683Z,26.89
2019-06-01T17:45:43.572Z,26.78
2019-06-01T17:48:25.735Z,26.71
2019-06-01T17:50:41.539Z,26.79
2019-06-01T17:53:11.084Z,26.68
2019-06-01T17:55:38.579Z,26.60
2019-06-01T17:58:07.519Z,26.43
2019-06-01T18:00:39.410Z,26.45
2019-06-01T18:03:08.007Z,26.29
2019-06-01T18:05:35.942Z,26.23
2019-06-01T18:08:03.866Z,26.25
2019-06-01T18:10:31.005Z,26.18
2019-06-01T18:12:57.985Z,26.17
2019-06-01T18:15:25.917Z,26.07
2019-06-01T18:17:52.895Z,25.93
2019-06-01T18:20:20.333Z,25.85
2019-06-01T18:22:47.356Z,25.67
2019-06-01T18:25:18.647Z,25.59
2019-06-01T18:27:46.045Z,25.51
2019-06-01T18:30:14.092Z,25.33
2019-06-01T18:32:43.825Z,25.16
2019-06-01T18:35:11.470Z,25.07
2019-06-01T18:37:38.432Z,24.94
2019-06-01T18:40:07.900Z,24.82
2019-06-01T18:42:35.828Z,24.64
2019-06-01T18:45:03.563Z,24.51
2019-06-01T18:47:32.689Z,24.32
2019-06-01T18:50:07.936Z,24.09
2019-06-01T18:52:35.229Z,23.90
2019-06-01T18:55:04.302Z,23.66
2019-06-01T18:57:31.750Z,23.47
2019-06-01T18:59:58.550Z,23.31
2019-06-01T19:02:25.635Z,23.14
2019-06-01T19:04:52.544Z,22.97
2019-06-01T19:07:19.438Z,22.78
2019-06-01T19:09:47.050Z,22.63
2019-06-01T19:12:14.190Z,22.55
2019-06-01T19:14:41.543Z,22.37
2019-06-01T19:17:08.353Z,22.20
2019-06-01T19:19:35.975Z,22.03
2019-06-01T19:22:02.831Z,21.89
2019-06-01T19:24:30.091Z,21.73
2019-06-01T19:26:56.971Z,21.60
2019-06-01T19:29:24.594Z,21.47
2019-06-01T19:31:51.932Z,21.35
2019-06-01T19:34:20.378Z,21.24
2019-06-01T19:36:47.315Z,21.12
2019-06-01T19:39:15.210Z,21.01
2019-06-01T19:41:45.206Z,20.90
2019-06-01T19:44:11.569Z,20.81
2019-06-01T19:46:38.713Z,20.72
2019-06-01T19:49:06.340Z,20.67
2019-06-01T19:51:33.252Z,20.56
2019-06-01T19:54:00.656Z,20.48
2019-06-01T19:56:27.411Z,20.38
2019-06-01T19:58:54.418Z,20.31
2019-06-01T20:01:22.718Z,20.21
2019-06-01T20:03:50.361Z,20.08
2019-06-01T20:06:17.142Z,19.98
2019-06-01T20:08:43.975Z,19.88
2019-06-01T20:11:11.425Z,19.80
2019-06-01T20:13:38.366Z,19.73
2019-06-01T20:16:05.327Z,19.67
2019-06-01T20:18:32.096Z,19.58
2019-06-01T20:20:59.489Z,19.51
2019-06-01T20:23:26.480Z,19.43
2019-06-01T20:25:53.239Z,19.36
2019-06-01T20:28:21.682Z,19.26
2019-06-01T20:30:48.596Z,19.17
2019-06-01T20:33:16.005Z,19.10
2019-06-01T20:35:43.414Z,19.02
2019-06-01T20:38:12.211Z,18.95
2019-06-01T20:40:39.178Z,18.91
2019-06-01T20:43:06.108Z,18.87
2019-06-01T20:45:32.995Z,18.81
2019-06-01T20:47:59.879Z,18.76
2019-06-01T20:50:27.551Z,18.69
2019-06-01T20:52:54.631Z,18.64
2019-06-01T20:55:21.390Z,18.58
2019-06-01T20:57:48.294Z,18.52
2019-06-01T21:00:15.998Z,18.47
2019-06-01T21:02:43.042Z,18.42
2019-06-01T21:05:09.945Z,18.38
2019-06-01T21:07:36.788Z,18.35
2019-06-01T21:10:04.192Z,18.31
2019-06-01T21:12:43.978Z,18.28
2019-06-01T21:14:59.785Z,18.22
2019-06-01T21:17:26.585Z,18.19
2019-06-01T21:19:53.344Z,18.21
2019-06-01T21:22:20.706Z,18.22
2019-06-01T21:24:47.769Z,18.25
2019-06-01T21:27:14.680Z,18.16
2019-06-01T21:29:42.014Z,18.18
2019-06-01T21:32:09.252Z,18.10
2019-06-01T21:34:36.362Z,18.05
2019-06-01T21:37:03.856Z,17.99
2019-06-01T21:39:30.690Z,17.93
2019-06-01T21:41:57.529Z,17.87
2019-06-01T21:44:25.683Z,17.81
2019-06-01T21:46:52.915Z,17.75
2019-06-01T21:49:20.384Z,17.73
2019-06-01T21:51:47.260Z,17.68
2019-06-01T21:54:13.946Z,17.54
2019-06-01T21:56:40.799Z,17.50
2019-06-01T21:59:08.194Z,17.52
2019-06-01T22:01:34.953Z,17.49
2019-06-01T22:04:01.858Z,17.47
2019-06-01T22:06:28.709Z,17.44
2019-06-01T22:08:55.516Z,17.41
2019-06-01T22:11:23.512Z,17.38
2019-06-01T22:13:50.728Z,17.41
2019-06-01T22:16:17.561Z,17.48
2019-06-01T22:18:44.520Z,17.39
2019-06-01T22:21:11.377Z,17.39
2019-06-01T22:23:38.236Z,17.36
2019-06-01T22:26:05.274Z,17.33
2019-06-01T22:28:32.481Z,17.32
2019-06-01T22:30:59.520Z,17.32
2019-06-01T22:33:26.602Z,17.33
2019-06-01T22:35:53.408Z,17.31
2019-06-01T22:38:20.209Z,17.30
2019-06-01T22:40:53.400Z,17.24
2019-06-01T22:43:36.839Z,17.19
2019-06-01T22:45:49.580Z,17.12
2019-06-01T22:48:16.533Z,17.11
2019-06-01T22:50:43.331Z,17.08
2019-06-01T22:53:10.092Z,17.01
2019-06-01T22:55:36.902Z,16.98
2019-06-01T22:58:03.665Z,16.93
2019-06-01T23:00:30.397Z,16.87
2019-06-01T23:02:57.876Z,16.80
2019-06-01T23:05:25.111Z,16.66
2019-06-01T23:07:52.342Z,16.69
2019-06-01T23:10:19.190Z,16.75
2019-06-01T23:12:46.101Z,16.74
2019-06-01T23:15:13.177Z,16.71
2019-06-01T23:17:39.947Z,16.70
2019-06-01T23:20:07.023Z,16.60
2019-06-01T23:22:33.847Z,16.49
2019-06-01T23:25:00.669Z,16.45
2019-06-01T23:27:28.283Z,16.38
2019-06-01T23:29:55.334Z,16.30
2019-06-01T23:32:22.440Z,16.22
2019-06-01T23:34:49.333Z,16.16
2019-06-01T23:37:23.001Z,16.13
2019-06-01T23:39:49.758Z,16.10
2019-06-01T23:42:16.477Z,16.06
2019-06-01T23:44:43.247Z,16.03
2019-06-01T23:47:10.394Z,16.02
2019-06-01T23:49:37.241Z,16.03
2019-06-01T23:52:04.158Z,16.05
2019-06-01T23:54:32.430Z,16.03
2019-06-01T23:56:59.555Z,16.08
2019-06-01T23:59:27.939Z,16.04
